Private Wetterstation Wechselburg
Wetterdaten: Dienstag, 17.09.2013
Datum Zeit Temp. +2m Bodentemp. Temp.+5cm Temp. Wind Windchill X Diff Temp. Feuchte +2m Feuchte +5cm Sonnenschein Luftdruck Regen Wind Richtung Richtung Sonnenschein UV Taupunkt Windchill Windben
17.09.2013 00:00 9,3 C 22,3 C 10,8 C 10,0 C 10,0 C 0,7 C 89 % 88 % 0 % 1001,0 hPa 0,0 l/m 0,0 km/h (0 Bft) NW 315 0 min 0,0 UV-I 7,6 C 10,0 C 0,0 km/h (0 Bft)
17.09.2013 00:05 9,3 C 22,3 C 10,8 C 10,0 C 10,0 C 0,7 C 89 % 88 % 0 % 1001,0 hPa 0,0 l/m 0,0 km/h (0 Bft) S 180 0 min 0,0 UV-I 7,6 C 10,0 C 0,0 km/h (0 Bft)
17.09.2013 00:10 9,3 C 22,3 C 10,8 C 10,0 C 10,0 C 0,7 C 89 % 88 % 0 % 1001,0 hPa 0,0 l/m 0,0 km/h (0 Bft) S-SO 157 0 min 0,0 UV-I 7,6 C 10,0 C 0,0 km/h (0 Bft)
17.09.2013 00:15 9,4 C 22,3 C 10,8 C 10,0 C 10,0 C 0,6 C 89 % 88 % 0 % 1001,2 hPa 0,0 l/m 0,0 km/h (0 Bft) S 180 0 min 0,0 UV-I 7,7 C 10,0 C 0,0 km/h (0 Bft)
17.09.2013 00:20 9,4 C 22,3 C 10,9 C 10,0 C 10,0 C 0,6 C 89 % 88 % 0 % 1001,2 hPa 0,0 l/m 0,0 km/h (0 Bft) N-NO 22 0 min 0,0 UV-I 7,7 C 10,0 C 0,0 km/h (0 Bft)
17.09.2013 00:25 9,4 C 22,3 C 10,9 C 10,0 C 10,0 C 0,6 C 89 % 88 % 0 % 1001,2 hPa 0,0 l/m 0,2 km/h (0 Bft) N-NW 337 0 min 0,0 UV-I 7,7 C 10,0 C 0,0 km/h (0 Bft)
17.09.2013 00:30 9,3 C 22,3 C 10,7 C 10,0 C 10,0 C 0,7 C 90 % 88 % 0 % 1001,2 hPa 0,7 l/m 0,2 km/h (0 Bft) W-NW 292 0 min 0,0 UV-I 7,7 C 10,0 C 0,0 km/h (0 Bft)
17.09.2013 00:35 9,3 C 22,3 C 10,7 C 10,0 C 10,0 C 0,7 C 90 % 88 % 0 % 1001,2 hPa 0,0 l/m 0,2 km/h (0 Bft) O-NO 67 0 min 0,0 UV-I 7,7 C 10,0 C 0,0 km/h (0 Bft)
17.09.2013 00:41 9,3 C 22,3 C 10,7 C 10,0 C 10,0 C 0,7 C 90 % 88 % 0 % 1001,2 hPa 0,0 l/m 0,3 km/h (0 Bft) N 0 0 min 0,0 UV-I 7,7 C 10,0 C 0,0 km/h (0 Bft)
17.09.2013 00:58 9,1 C 22,2 C 10,5 C 9,8 C 9,8 C 0,7 C 90 % 88 % 0 % 1000,7 hPa 0,0 l/m 0,5 km/h (0 Bft) O-SO 112 0 min 0,0 UV-I 7,5 C 9,8 C 1,9 km/h (1 Bft)
17.09.2013 00:59 9,1 C 22,2 C 10,5 C 9,8 C 9,8 C 0,7 C 90 % 88 % 0 % 1000,7 hPa 0,0 l/m 0,5 km/h (0 Bft) O-SO 112 0 min 0,0 UV-I 7,5 C 9,8 C 1,9 km/h (1 Bft)
17.09.2013 01:05 9,1 C 22,2 C 10,5 C 9,8 C 9,8 C 0,7 C 90 % 88 % 0 % 1000,7 hPa 0,0 l/m 1,0 km/h (0 Bft) N-NO 22 0 min 0,0 UV-I 7,5 C 9,8 C 1,9 km/h (1 Bft)
17.09.2013 01:10 9,0 C 22,2 C 10,4 C 9,8 C 9,8 C 0,8 C 90 % 88 % 0 % 1000,7 hPa 0,0 l/m 0,6 km/h (0 Bft) NO 45 0 min 0,0 UV-I 7,4 C 9,8 C 0,0 km/h (0 Bft)
17.09.2013 01:15 9,0 C 22,2 C 10,4 C 9,7 C 9,7 C 0,7 C 90 % 88 % 0 % 1000,8 hPa 0,0 l/m 0,3 km/h (0 Bft) NW 315 0 min 0,0 UV-I 7,4 C 9,7 C 1,6 km/h (1 Bft)
17.09.2013 01:20 9,0 C 22,2 C 10,5 C 9,7 C 9,7 C 0,7 C 90 % 88 % 0 % 1000,8 hPa 0,0 l/m 0,8 km/h (0 Bft) W-SW 247 0 min 0,0 UV-I 7,4 C 9,7 C 3,5 km/h (1 Bft)
17.09.2013 01:25 9,0 C 22,2 C 10,5 C 9,7 C 9,7 C 0,7 C 90 % 89 % 0 % 1000,8 hPa 0,0 l/m 1,0 km/h (0 Bft) S-SW 202 0 min 0,0 UV-I 7,4 C 9,7 C 0,0 km/h (0 Bft)
17.09.2013 01:30 9,1 C 22,2 C 10,4 C 9,6 C 9,6 C 0,5 C 90 % 88 % 0 % 1000,8 hPa 0,0 l/m 0,6 km/h (0 Bft) W 270 0 min 0,0 UV-I 7,5 C 9,6 C 0,0 km/h (0 Bft)
17.09.2013 01:35 9,1 C 22,2 C 10,5 C 9,5 C 9,5 C 0,4 C 90 % 89 % 0 % 1000,8 hPa 0,0 l/m 0,0 km/h (0 Bft) W-SW 247 0 min 0,0 UV-I 7,5 C 9,5 C 0,0 km/h (0 Bft)
17.09.2013 01:40 9,0 C 22,2 C 10,5 C 9,4 C 9,4 C 0,4 C 90 % 89 % 0 % 1000,8 hPa 0,0 l/m 0,0 km/h (0 Bft) S-SW 202 0 min 0,0 UV-I 7,4 C 9,4 C 0,0 km/h (0 Bft)
17.09.2013 01:45 8,9 C 22,2 C 10,3 C 9,4 C 9,4 C 0,5 C 90 % 88 % 0 % 1000,8 hPa 0,0 l/m 0,0 km/h (0 Bft) O-SO 112 0 min 0,0 UV-I 7,4 C 9,4 C 0,0 km/h (0 Bft)
17.09.2013 01:50 8,9 C 22,2 C 10,3 C 9,3 C 9,3 C 0,4 C 90 % 88 % 0 % 1000,8 hPa 0,0 l/m 0,0 km/h (0 Bft) O-NO 67 0 min 0,0 UV-I 7,4 C 9,3 C 0,0 km/h (0 Bft)
17.09.2013 01:55 8,9 C 22,2 C 10,3 C 9,3 C 9,3 C 0,4 C 90 % 88 % 0 % 1001,0 hPa 0,0 l/m 0,0 km/h (0 Bft) O-NO 67 0 min 0,0 UV-I 7,4 C 9,3 C 0,0 km/h (0 Bft)
17.09.2013 02:00 8,8 C 22,1 C 10,2 C 9,3 C 9,3 C 0,5 C 90 % 88 % 0 % 1001,0 hPa 0,0 l/m 0,0 km/h (0 Bft) O-NO 67 0 min 0,0 UV-I 7,3 C 9,3 C 0,0 km/h (0 Bft)
17.09.2013 02:05 8,8 C 22,1 C 10,1 C 9,2 C 9,2 C 0,4 C 90 % 88 % 0 % 1001,0 hPa 0,0 l/m 0,0 km/h (0 Bft) NO 45 0 min 0,0 UV-I 7,3 C 9,2 C 0,0 km/h (0 Bft)
17.09.2013 02:10 8,8 C 22,1 C 10,1 C 9,1 C 9,1 C 0,3 C 90 % 88 % 0 % 1001,0 hPa 0,0 l/m 0,0 km/h (0 Bft) O 90 0 min 0,0 UV-I 7,3 C 9,1 C 0,0 km/h (0 Bft)
17.09.2013 02:15 8,7 C 22,1 C 10,0 C 9,0 C 9,0 C 0,3 C 89 % 88 % 0 % 1001,0 hPa 0,0 l/m 0,0 km/h (0 Bft) W-NW 292 0 min 0,0 UV-I 7,0 C 9,0 C 0,0 km/h (0 Bft)
17.09.2013 02:20 8,6 C 22,1 C 9,9 C 8,9 C 8,9 C 0,3 C 89 % 88 % 0 % 1001,0 hPa 0,0 l/m 0,0 km/h (0 Bft) NW 315 0 min 0,0 UV-I 6,9 C 8,9 C 0,0 km/h (0 Bft)
17.09.2013 02:25 8,7 C 22,1 C 9,9 C 8,8 C 8,8 C 0,1 C 89 % 88 % 0 % 1001,0 hPa 0,0 l/m 0,0 km/h (0 Bft) S-SO 157 0 min 0,0 UV-I 7,0 C 8,8 C 0,0 km/h (0 Bft)
17.09.2013 02:30 8,5 C 22,1 C 9,9 C 8,8 C 8,8 C 0,3 C 89 % 88 % 0 % 1001,0 hPa 0,0 l/m 0,0 km/h (0 Bft) O 90 0 min 0,0 UV-I 6,8 C 8,8 C 0,0 km/h (0 Bft)
17.09.2013 02:35 8,5 C 22,1 C 9,8 C 8,7 C 8,7 C 0,2 C 89 % 88 % 0 % 1000,8 hPa 0,0 l/m 0,0 km/h (0 Bft) O 90 0 min 0,0 UV-I 6,8 C 8,7 C 0,0 km/h (0 Bft)
17.09.2013 02:40 8,5 C 22,1 C 9,7 C 8,5 C 8,5 C 0,0 C 89 % 88 % 0 % 1000,8 hPa 0,7 l/m 0,0 km/h (0 Bft) N-NW 337 0 min 0,0 UV-I 6,8 C 8,5 C 0,0 km/h (0 Bft)
17.09.2013 02:45 8,4 C 22,0 C 9,6 C 8,4 C 8,3 C 0,0 C 89 % 89 % 0 % 1000,8 hPa 0,0 l/m 0,0 km/h (0 Bft) O-SO 112 0 min 0,0 UV-I 6,7 C 8,3 C 0,0 km/h (0 Bft)
17.09.2013 02:50 8,3 C 22,0 C 9,6 C 8,4 C 8,4 C 0,1 C 89 % 88 % 0 % 1000,8 hPa 0,0 l/m 0,0 km/h (0 Bft) O-NO 67 0 min 0,0 UV-I 6,6 C 8,4 C 0,0 km/h (0 Bft)
17.09.2013 02:55 8,3 C 22,0 C 9,5 C 8,4 C 8,4 C 0,1 C 89 % 89 % 0 % 1001,6 hPa 0,0 l/m 0,0 km/h (0 Bft) NW 315 0 min 0,0 UV-I 6,6 C 8,4 C 0,0 km/h (0 Bft)
17.09.2013 03:00 8,3 C 22,0 C 9,5 C 8,5 C 8,5 C 0,2 C 89 % 89 % 0 % 1001,6 hPa 0,0 l/m 0,0 km/h (0 Bft) S 180 0 min 0,0 UV-I 6,6 C 8,5 C 0,0 km/h (0 Bft)
17.09.2013 03:05 8,3 C 22,0 C 9,5 C 8,3 C 8,3 C 0,0 C 90 % 89 % 0 % 1001,6 hPa 0,0 l/m 0,0 km/h (0 Bft) W-SW 247 0 min 0,0 UV-I 6,8 C 8,3 C 0,0 km/h (0 Bft)
17.09.2013 03:10 8,3 C 22,0 C 9,5 C 8,3 C 8,3 C 0,0 C 90 % 89 % 0 % 1001,6 hPa 0,0 l/m 0,0 km/h (0 Bft) W-SW 247 0 min 0,0 UV-I 6,8 C 8,3 C 1,6 km/h (1 Bft)
17.09.2013 03:15 8,3 C 22,0 C 9,3 C 8,3 C 8,3 C 0,0 C 90 % 89 % 0 % 1001,8 hPa 0,0 l/m 0,2 km/h (0 Bft) N-NW 337 0 min 0,0 UV-I 6,8 C 8,3 C 0,0 km/h (0 Bft)
17.09.2013 03:20 8,3 C 22,0 C 9,3 C 8,2 C 8,1 C 0,0 C 90 % 89 % 0 % 1001,8 hPa 0,0 l/m 0,2 km/h (0 Bft) S 180 0 min 0,0 UV-I 6,8 C 8,1 C 0,0 km/h (0 Bft)
17.09.2013 03:25 8,3 C 22,0 C 9,3 C 8,2 C 8,0 C 0,0 C 90 % 89 % 0 % 1001,8 hPa 0,0 l/m 0,0 km/h (0 Bft) W-SW 247 0 min 0,0 UV-I 6,8 C 8,0 C 0,0 km/h (0 Bft)
17.09.2013 03:30 8,3 C 22,0 C 9,2 C 8,2 C 7,9 C 0,0 C 90 % 89 % 0 % 1001,8 hPa 0,0 l/m 0,0 km/h (0 Bft) O-SO 112 0 min 0,0 UV-I 6,8 C 7,9 C 0,0 km/h (0 Bft)
17.09.2013 03:35 8,3 C 22,1 C 9,1 C 8,2 C 8,0 C 0,0 C 90 % 89 % 0 % 1001,9 hPa 0,0 l/m 0,3 km/h (0 Bft) W 270 0 min 0,0 UV-I 6,8 C 8,0 C 0,0 km/h (0 Bft)
17.09.2013 03:40 8,3 C 22,0 C 9,1 C 8,2 C 8,0 C 0,0 C 90 % 89 % 0 % 1001,9 hPa 0,0 l/m 0,5 km/h (0 Bft) S-SW 202 0 min 0,0 UV-I 6,8 C 8,0 C 2,4 km/h (1 Bft)
17.09.2013 03:45 8,3 C 22,0 C 9,3 C 8,2 C 8,0 C 0,0 C 90 % 89 % 0 % 1001,9 hPa 0,0 l/m 0,3 km/h (0 Bft) S 180 0 min 0,0 UV-I 6,8 C 8,0 C 0,0 km/h (0 Bft)
17.09.2013 03:50 8,3 C 22,0 C 9,3 C 8,2 C 8,0 C 0,0 C 90 % 89 % 0 % 1001,9 hPa 0,0 l/m 0,5 km/h (0 Bft) S 180 0 min 0,0 UV-I 6,8 C 8,0 C 1,6 km/h (1 Bft)
17.09.2013 03:55 8,3 C 22,0 C 9,2 C 8,2 C 8,1 C 0,0 C 90 % 89 % 0 % 1001,9 hPa 0,0 l/m 1,4 km/h (1 Bft) W 270 0 min 0,0 UV-I 6,8 C 8,1 C 1,6 km/h (1 Bft)
17.09.2013 04:00 7,8 C 22,0 C 9,2 C 8,1 C 8,1 C 0,3 C 90 % 89 % 0 % 1001,9 hPa 0,0 l/m 1,9 km/h (1 Bft) W 270 0 min 0,0 UV-I 6,3 C 8,1 C 4,8 km/h (1 Bft)
17.09.2013 04:05 7,7 C 22,0 C 9,2 C 8,1 C 8,1 C 0,4 C 90 % 89 % 0 % 1001,9 hPa 0,0 l/m 1,1 km/h (1 Bft) W-SW 247 0 min 0,0 UV-I 6,2 C 8,1 C 2,1 km/h (1 Bft)
17.09.2013 04:10 7,7 C 22,0 C 9,2 C 8,0 C 8,0 C 0,3 C 90 % 89 % 0 % 1001,9 hPa 0,0 l/m 0,5 km/h (0 Bft) W-SW 247 0 min 0,0 UV-I 6,2 C 8,0 C 1,9 km/h (1 Bft)
17.09.2013 04:15 7,6 C 22,0 C 9,1 C 7,9 C 7,9 C 0,3 C 90 % 89 % 0 % 1002,0 hPa 0,0 l/m 0,3 km/h (0 Bft) W-NW 292 0 min 0,0 UV-I 6,1 C 7,9 C 0,0 km/h (0 Bft)
17.09.2013 04:20 7,5 C 22,0 C 9,1 C 7,7 C 7,7 C 0,2 C 90 % 89 % 0 % 1002,0 hPa 0,0 l/m 0,2 km/h (0 Bft) SW 225 0 min 0,0 UV-I 6,0 C 7,7 C 0,0 km/h (0 Bft)
17.09.2013 04:25 7,4 C 22,0 C 9,1 C 7,7 C 7,7 C 0,3 C 90 % 89 % 0 % 1002,0 hPa 0,0 l/m 0,3 km/h (0 Bft) W-SW 247 0 min 0,0 UV-I 5,9 C 7,7 C 2,7 km/h (1 Bft)
17.09.2013 04:30 7,5 C 22,0 C 9,1 C 7,7 C 7,7 C 0,2 C 90 % 89 % 0 % 1002,0 hPa 0,0 l/m 0,6 km/h (0 Bft) S-SW 202 0 min 0,0 UV-I 6,0 C 7,7 C 1,9 km/h (1 Bft)
17.09.2013 04:35 7,4 C 22,0 C 9,1 C 7,6 C 7,6 C 0,2 C 90 % 89 % 0 % 1002,1 hPa 0,0 l/m 0,5 km/h (0 Bft) S 180 0 min 0,0 UV-I 5,9 C 7,6 C 0,0 km/h (0 Bft)
17.09.2013 04:40 7,3 C 22,0 C 8,8 C 7,6 C 7,6 C 0,3 C 90 % 89 % 0 % 1002,1 hPa 0,0 l/m 0,3 km/h (0 Bft) S 180 0 min 0,0 UV-I 5,8 C 7,6 C 0,0 km/h (0 Bft)
17.09.2013 04:45 7,3 C 22,0 C 8,9 C 7,6 C 7,6 C 0,3 C 90 % 89 % 0 % 1002,1 hPa 0,0 l/m 0,3 km/h (0 Bft) S 180 0 min 0,0 UV-I 5,8 C 7,6 C 0,0 km/h (0 Bft)
17.09.2013 04:50 7,2 C 22,0 C 8,9 C 7,6 C 7,6 C 0,4 C 90 % 89 % 0 % 1002,1 hPa 0,0 l/m 0,6 km/h (0 Bft) W-NW 292 0 min 0,0 UV-I 5,7 C 7,6 C 3,1 km/h (1 Bft)
17.09.2013 04:55 7,2 C 22,0 C 8,9 C 7,6 C 7,6 C 0,4 C 90 % 89 % 0 % 1002,3 hPa 0,0 l/m 1,1 km/h (1 Bft) W-SW 247 0 min 0,0 UV-I 5,7 C 7,6 C 0,0 km/h (0 Bft)
17.09.2013 05:00 7,2 C 22,0 C 8,9 C 7,5 C 7,5 C 0,3 C 90 % 89 % 0 % 1002,3 hPa 0,0 l/m 0,6 km/h (0 Bft) S-SW 202 0 min 0,0 UV-I 5,7 C 7,5 C 0,0 km/h (0 Bft)
17.09.2013 05:05 7,2 C 22,0 C 8,7 C 7,3 C 7,3 C 0,1 C 90 % 89 % 0 % 1002,3 hPa 0,0 l/m 0,0 km/h (0 Bft) N-NW 337 0 min 0,0 UV-I 5,7 C 7,3 C 0,0 km/h (0 Bft)
17.09.2013 05:10 7,1 C 22,0 C 8,6 C 7,3 C 7,3 C 0,2 C 90 % 89 % 0 % 1002,3 hPa 0,0 l/m 0,0 km/h (0 Bft) O-NO 67 0 min 0,0 UV-I 5,6 C 7,3 C 0,0 km/h (0 Bft)
17.09.2013 05:15 7,1 C 22,0 C 8,5 C 7,1 C 7,1 C 0,0 C 90 % 89 % 0 % 1002,8 hPa 0,0 l/m 0,0 km/h (0 Bft) N-NO 22 0 min 0,0 UV-I 5,6 C 7,1 C 0,0 km/h (0 Bft)
17.09.2013 05:20 7,0 C 22,0 C 8,5 C 7,0 C 7,0 C 0,0 C 90 % 89 % 0 % 1002,8 hPa 0,0 l/m 0,0 km/h (0 Bft) S 180 0 min 0,0 UV-I 5,5 C 7,0 C 0,0 km/h (0 Bft)
17.09.2013 05:25 6,9 C 22,0 C 8,4 C 7,0 C 7,0 C 0,1 C 90 % 89 % 0 % 1002,8 hPa 0,0 l/m 0,0 km/h (0 Bft) SO 135 0 min 0,0 UV-I 5,4 C 7,0 C 0,0 km/h (0 Bft)
17.09.2013 05:30 6,9 C 22,0 C 8,3 C 7,0 C 7,0 C 0,1 C 90 % 89 % 0 % 1002,8 hPa 0,0 l/m 0,0 km/h (0 Bft) N-NO 22 0 min 0,0 UV-I 5,4 C 7,0 C 0,0 km/h (0 Bft)
17.09.2013 05:35 6,9 C 22,0 C 8,3 C 6,9 C 6,9 C 0,0 C 90 % 89 % 0 % 1002,4 hPa 0,0 l/m 0,0 km/h (0 Bft) O-SO 112 0 min 0,0 UV-I 5,4 C 6,9 C 0,0 km/h (0 Bft)
17.09.2013 05:40 6,9 C 22,0 C 8,1 C 6,9 C 6,8 C 0,0 C 90 % 89 % 0 % 1002,4 hPa 0,0 l/m 0,0 km/h (0 Bft) O-NO 67 0 min 0,0 UV-I 5,4 C 6,8 C 0,0 km/h (0 Bft)
17.09.2013 05:45 6,8 C 22,0 C 8,1 C 6,8 C 6,8 C 0,0 C 90 % 89 % 0 % 1002,4 hPa 0,0 l/m 0,0 km/h (0 Bft) O 90 0 min 0,0 UV-I 5,3 C 6,8 C 0,0 km/h (0 Bft)
17.09.2013 05:50 6,8 C 22,0 C 8,1 C 6,8 C 6,7 C 0,0 C 90 % 89 % 0 % 1002,4 hPa 0,0 l/m 0,0 km/h (0 Bft) O-SO 112 0 min 0,0 UV-I 5,3 C 6,7 C 0,0 km/h (0 Bft)
17.09.2013 05:55 6,7 C 22,0 C 8,0 C 6,7 C 6,7 C 0,0 C 90 % 89 % 0 % 1002,6 hPa 0,0 l/m 0,0 km/h (0 Bft) O-NO 67 0 min 0,0 UV-I 5,2 C 6,7 C 0,0 km/h (0 Bft)
17.09.2013 06:00 6,6 C 22,0 C 8,0 C 6,6 C 6,6 C 0,0 C 90 % 89 % 0 % 1002,6 hPa 0,0 l/m 0,0 km/h (0 Bft) O-NO 67 0 min 0,0 UV-I 5,1 C 6,6 C 0,0 km/h (0 Bft)
17.09.2013 06:05 6,7 C 22,0 C 7,9 C 6,7 C 6,6 C 0,0 C 90 % 89 % 0 % 1002,6 hPa 0,0 l/m 0,0 km/h (0 Bft) O-NO 67 0 min 0,0 UV-I 5,2 C 6,6 C 0,0 km/h (0 Bft)
17.09.2013 06:10 6,5 C 22,0 C 7,7 C 6,5 C 6,4 C 0,0 C 90 % 89 % 0 % 1002,6 hPa 0,0 l/m 0,0 km/h (0 Bft) O-NO 67 0 min 0,0 UV-I 5,0 C 6,4 C 0,0 km/h (0 Bft)
17.09.2013 06:15 6,4 C 22,0 C 7,6 C 6,4 C 6,4 C 0,0 C 90 % 89 % 0 % 1002,6 hPa 0,0 l/m 0,0 km/h (0 Bft) O 90 0 min 0,0 UV-I 4,9 C 6,4 C 0,0 km/h (0 Bft)
17.09.2013 06:20 6,4 C 21,7 C 7,6 C 6,4 C 6,4 C 0,0 C 90 % 89 % 0 % 1002,6 hPa 0,0 l/m 0,0 km/h (0 Bft) O 90 0 min 0,0 UV-I 4,9 C 6,4 C 0,0 km/h (0 Bft)
17.09.2013 06:25 6,4 C 21,7 C 7,7 C 6,4 C 6,4 C 0,0 C 90 % 89 % 0 % 1002,6 hPa 0,0 l/m 0,0 km/h (0 Bft) SO 135 0 min 0,0 UV-I 4,9 C 6,4 C 0,0 km/h (0 Bft)
17.09.2013 06:30 6,3 C 21,7 C 7,6 C 6,3 C 6,2 C 0,0 C 90 % 89 % 0 % 1002,6 hPa 0,0 l/m 0,0 km/h (0 Bft) SW 225 0 min 0,0 UV-I 4,8 C 6,2 C 0,0 km/h (0 Bft)
17.09.2013 06:35 6,3 C 21,6 C 7,7 C 6,2 C 6,1 C 0,0 C 90 % 89 % 0 % 1002,8 hPa 0,0 l/m 0,0 km/h (0 Bft) O 90 0 min 0,0 UV-I 4,8 C 6,1 C 0,0 km/h (0 Bft)
17.09.2013 06:40 6,1 C 21,6 C 7,4 C 6,1 C 6,1 C 0,0 C 90 % 89 % 0 % 1002,8 hPa 0,0 l/m 0,0 km/h (0 Bft) O-NO 67 0 min 0,0 UV-I 4,6 C 6,1 C 0,0 km/h (0 Bft)
17.09.2013 06:45 6,1 C 21,6 C 7,5 C 6,1 C 6,1 C 0,0 C 90 % 89 % 0 % 1002,8 hPa 0,0 l/m 0,0 km/h (0 Bft) SO 135 0 min 0,0 UV-I 4,6 C 6,1 C 0,0 km/h (0 Bft)
17.09.2013 06:50 6,1 C 21,6 C 7,5 C 6,0 C 5,9 C 0,0 C 90 % 90 % 0 % 1002,8 hPa 0,0 l/m 0,0 km/h (0 Bft) S-SW 202 0 min 0,0 UV-I 4,6 C 5,9 C 0,0 km/h (0 Bft)
17.09.2013 06:55 5,9 C 21,6 C 7,3 C 5,9 C 5,8 C 0,0 C 90 % 89 % 0 % 1002,8 hPa 0,0 l/m 0,0 km/h (0 Bft) O-NO 67 0 min 0,0 UV-I 4,4 C 5,8 C 0,0 km/h (0 Bft)
17.09.2013 07:00 5,9 C 21,6 C 7,3 C 6,0 C 6,0 C 0,1 C 90 % 89 % 3 % 1002,8 hPa 0,0 l/m 0,0 km/h (0 Bft) O-SO 112 0 min 0,0 UV-I 4,4 C 6,0 C 0,0 km/h (0 Bft)
17.09.2013 07:05 5,9 C 21,6 C 7,3 C 5,9 C 5,9 C 0,0 C 90 % 89 % 0 % 1002,8 hPa 0,0 l/m 0,0 km/h (0 Bft) O-NO 67 0 min 0,0 UV-I 4,4 C 5,9 C 0,0 km/h (0 Bft)
17.09.2013 07:10 5,9 C 21,6 C 7,3 C 6,0 C 6,0 C 0,1 C 90 % 89 % 3 % 1002,8 hPa 0,0 l/m 0,0 km/h (0 Bft) SO 135 0 min 0,0 UV-I 4,4 C 6,0 C 0,0 km/h (0 Bft)
17.09.2013 07:15 6,0 C 21,5 C 7,4 C 6,1 C 6,1 C 0,1 C 91 % 90 % 3 % 1003,2 hPa 0,0 l/m 0,0 km/h (0 Bft) O-NO 67 0 min 0,0 UV-I 4,6 C 6,1 C 0,0 km/h (0 Bft)
17.09.2013 07:20 6,1 C 21,5 C 7,5 C 6,2 C 6,2 C 0,1 C 91 % 90 % 3 % 1003,2 hPa 0,0 l/m 0,0 km/h (0 Bft) O 90 0 min 0,0 UV-I 4,7 C 6,2 C 0,0 km/h (0 Bft)
17.09.2013 07:25 6,0 C 21,5 C 7,4 C 6,3 C 6,3 C 0,3 C 91 % 89 % 8 % 1003,2 hPa 0,0 l/m 0,0 km/h (0 Bft) N-NW 337 0 min 0,0 UV-I 4,6 C 6,3 C 0,0 km/h (0 Bft)
17.09.2013 07:30 6,0 C 21,5 C 7,5 C 6,4 C 6,4 C 0,4 C 91 % 90 % 11 % 1003,2 hPa 0,0 l/m 0,0 km/h (0 Bft) N-NW 337 0 min 0,0 UV-I 4,6 C 6,4 C 0,0 km/h (0 Bft)
17.09.2013 07:35 6,0 C 21,5 C 7,5 C 6,5 C 6,5 C 0,5 C 91 % 90 % 13 % 1003,1 hPa 0,0 l/m 0,0 km/h (0 Bft) S 180 0 min 0,0 UV-I 4,6 C 6,5 C 0,0 km/h (0 Bft)
17.09.2013 07:40 6,0 C 21,5 C 7,5 C 6,6 C 6,6 C 0,6 C 91 % 90 % 16 % 1003,1 hPa 0,0 l/m 0,0 km/h (0 Bft) SW 225 0 min 0,0 UV-I 4,6 C 6,6 C 0,0 km/h (0 Bft)
17.09.2013 07:45 6,1 C 21,5 C 7,6 C 6,8 C 6,8 C 0,7 C 91 % 90 % 18 % 1003,1 hPa 0,0 l/m 0,0 km/h (0 Bft) O 90 0 min 0,0 UV-I 4,7 C 6,8 C 0,0 km/h (0 Bft)
17.09.2013 07:50 6,3 C 21,5 C 7,6 C 6,8 C 6,8 C 0,5 C 91 % 90 % 13 % 1003,1 hPa 0,0 l/m 0,0 km/h (0 Bft) O-NO 67 0 min 0,0 UV-I 4,9 C 6,8 C 0,0 km/h (0 Bft)
17.09.2013 07:55 6,3 C 21,5 C 7,7 C 7,0 C 7,0 C 0,7 C 91 % 90 % 18 % 1003,2 hPa 0,0 l/m 0,0 km/h (0 Bft) W-NW 292 0 min 0,0 UV-I 4,9 C 7,0 C 0,0 km/h (0 Bft)
17.09.2013 08:00 6,3 C 21,5 C 7,8 C 7,1 C 7,1 C 0,8 C 91 % 90 % 21 % 1003,2 hPa 0,0 l/m 0,0 km/h (0 Bft) O-NO 67 0 min 0,0 UV-I 4,9 C 7,1 C 0,0 km/h (0 Bft)
17.09.2013 08:05 6,4 C 21,5 C 7,9 C 7,1 C 7,1 C 0,7 C 91 % 90 % 18 % 1003,2 hPa 0,0 l/m 0,0 km/h (0 Bft) O 90 0 min 0,0 UV-I 5,0 C 7,1 C 0,0 km/h (0 Bft)
17.09.2013 08:10 6,4 C 21,5 C 7,9 C 7,3 C 7,3 C 0,9 C 91 % 90 % 24 % 1003,2 hPa 0,0 l/m 0,0 km/h (0 Bft) S-SO 157 0 min 0,0 UV-I 5,0 C 7,3 C 0,0 km/h (0 Bft)
17.09.2013 08:15 6,5 C 21,5 C 7,9 C 7,6 C 7,6 C 1,1 C 92 % 90 % 29 % 1003,2 hPa 0,0 l/m 0,0 km/h (0 Bft) O 90 0 min 0,0 UV-I 5,3 C 7,6 C 0,0 km/h (0 Bft)
17.09.2013 08:20 6,6 C 21,4 C 8,1 C 7,9 C 7,9 C 1,3 C 92 % 90 % 34 % 1003,2 hPa 0,0 l/m 0,0 km/h (0 Bft) S 180 0 min 0,0 UV-I 5,4 C 7,9 C 0,0 km/h (0 Bft)
17.09.2013 08:25 6,7 C 21,4 C 8,3 C 8,1 C 8,1 C 1,4 C 92 % 90 % 37 % 1003,2 hPa 0,0 l/m 0,0 km/h (0 Bft) NO 45 0 min 0,0 UV-I 5,5 C 8,1 C 0,0 km/h (0 Bft)
17.09.2013 08:30 6,9 C 21,4 C 8,3 C 8,1 C 8,1 C 1,2 C 92 % 90 % 32 % 1003,2 hPa 0,0 l/m 0,0 km/h (0 Bft) NO 45 0 min 0,0 UV-I 5,7 C 8,1 C 0,0 km/h (0 Bft)
17.09.2013 08:35 7,0 C 21,4 C 8,4 C 8,3 C 8,3 C 1,3 C 92 % 90 % 34 % 1003,2 hPa 0,0 l/m 0,0 km/h (0 Bft) W-SW 247 0 min 0,0 UV-I 5,8 C 8,3 C 0,0 km/h (0 Bft)
17.09.2013 08:40 7,0 C 21,4 C 8,7 C 8,3 C 8,3 C 1,3 C 92 % 90 % 34 % 1003,2 hPa 0,0 l/m 0,2 km/h (0 Bft) S-SW 202 0 min 0,0 UV-I 5,8 C 8,3 C 2,7 km/h (1 Bft)
17.09.2013 08:45 7,1 C 21,4 C 8,7 C 8,4 C 8,4 C 1,3 C 92 % 90 % 34 % 1003,2 hPa 0,0 l/m 0,2 km/h (0 Bft) SO 135 0 min 0,0 UV-I 5,9 C 8,4 C 0,0 km/h (0 Bft)
17.09.2013 08:50 7,3 C 21,4 C 8,7 C 8,4 C 8,4 C 1,1 C 92 % 89 % 29 % 1003,2 hPa 0,0 l/m 0,2 km/h (0 Bft) NO 45 0 min 0,0 UV-I 6,1 C 8,4 C 0,0 km/h (0 Bft)
17.09.2013 08:55 7,2 C 21,4 C 8,7 C 8,3 C 8,3 C 1,1 C 92 % 89 % 29 % 1003,5 hPa 0,0 l/m 0,2 km/h (0 Bft) SW 225 0 min 0,0 UV-I 6,0 C 8,3 C 2,4 km/h (1 Bft)
17.09.2013 09:00 7,3 C 21,3 C 8,7 C 8,3 C 8,3 C 1,0 C 92 % 89 % 26 % 1003,5 hPa 0,0 l/m 1,3 km/h (1 Bft) S-SW 202 0 min 0,0 UV-I 6,1 C 8,3 C 6,1 km/h (2 Bft)
17.09.2013 09:05 7,3 C 21,3 C 8,7 C 8,3 C 8,3 C 1,0 C 92 % 89 % 26 % 1003,5 hPa 0,0 l/m 2,3 km/h (1 Bft) S 180 0 min 0,0 UV-I 6,1 C 8,3 C 0,0 km/h (0 Bft)
17.09.2013 09:10 7,3 C 21,3 C 8,7 C 8,2 C 8,2 C 0,9 C 92 % 89 % 24 % 1003,5 hPa 0,0 l/m 1,9 km/h (1 Bft) O 90 0 min 0,0 UV-I 6,1 C 8,2 C 3,1 km/h (1 Bft)
17.09.2013 09:15 7,2 C 21,3 C 8,5 C 8,1 C 8,1 C 0,9 C 92 % 89 % 24 % 1003,9 hPa 0,0 l/m 1,0 km/h (0 Bft) N-NW 337 0 min 0,0 UV-I 6,0 C 8,1 C 1,9 km/h (1 Bft)
17.09.2013 09:20 7,1 C 21,3 C 8,5 C 8,1 C 8,1 C 1,0 C 92 % 89 % 26 % 1003,9 hPa 0,0 l/m 0,5 km/h (0 Bft) S 180 0 min 0,0 UV-I 5,9 C 8,1 C 0,0 km/h (0 Bft)
17.09.2013 09:25 7,2 C 21,3 C 8,4 C 8,2 C 8,2 C 1,0 C 92 % 89 % 26 % 1003,9 hPa 0,0 l/m 0,6 km/h (0 Bft) SW 225 0 min 0,0 UV-I 6,0 C 8,2 C 0,0 km/h (0 Bft)
17.09.2013 09:30 7,2 C 21,3 C 8,5 C 8,5 C 8,5 C 1,3 C 92 % 89 % 34 % 1003,9 hPa 0,0 l/m 0,5 km/h (0 Bft) W 270 0 min 0,0 UV-I 6,0 C 8,5 C 0,0 km/h (0 Bft)
17.09.2013 09:35 7,3 C 21,3 C 8,7 C 8,9 C 8,9 C 1,6 C 92 % 89 % 42 % 1004,0 hPa 0,0 l/m 0,5 km/h (0 Bft) SW 225 0 min 0,0 UV-I 6,1 C 8,9 C 3,7 km/h (1 Bft)
17.09.2013 09:40 7,3 C 21,2 C 8,7 C 8,9 C 8,9 C 1,6 C 92 % 89 % 42 % 1004,0 hPa 0,0 l/m 0,3 km/h (0 Bft) W-SW 247 0 min 0,0 UV-I 6,1 C 8,9 C 0,0 km/h (0 Bft)
17.09.2013 09:45 7,5 C 21,2 C 8,9 C 9,2 C 9,2 C 1,7 C 92 % 90 % 45 % 1004,0 hPa 0,0 l/m 0,8 km/h (0 Bft) S-SO 157 0 min 0,0 UV-I 6,3 C 9,2 C 1,9 km/h (1 Bft)
17.09.2013 09:50 7,7 C 21,2 C 9,0 C 9,5 C 9,5 C 1,8 C 92 % 90 % 47 % 1004,0 hPa 0,0 l/m 1,4 km/h (1 Bft) SW 225 0 min 0,0 UV-I 6,5 C 9,5 C 6,6 km/h (2 Bft)
17.09.2013 09:55 7,6 C 21,1 C 9,1 C 9,7 C 9,7 C 2,1 C 92 % 90 % 55 % 1004,0 hPa 0,0 l/m 2,7 km/h (1 Bft) W 270 0 min 0,0 UV-I 6,4 C 9,7 C 4,0 km/h (1 Bft)
17.09.2013 10:00 7,9 C 21,1 C 9,2 C 9,9 C 9,9 C 2,0 C 92 % 90 % 53 % 1004,0 hPa 0,0 l/m 3,7 km/h (1 Bft) SW 225 0 min 0,0 UV-I 6,7 C 9,9 C 12,9 km/h (3 Bft)
17.09.2013 10:05 7,9 C 21,0 C 9,3 C 9,8 C 9,8 C 1,9 C 92 % 90 % 50 % 1004,0 hPa 0,0 l/m 5,5 km/h (1 Bft) W-NW 292 0 min 0,0 UV-I 6,7 C 9,4 C 9,5 km/h (2 Bft)
17.09.2013 10:10 7,9 C 21,0 C 9,5 C 10,2 C 10,2 C 2,3 C 92 % 90 % 61 % 1004,0 hPa 0,0 l/m 6,4 km/h (2 Bft) W 270 0 min 0,0 UV-I 6,7 C 10,2 C 14,2 km/h (3 Bft)
17.09.2013 10:15 8,1 C 21,0 C 9,5 C 10,3 C 10,3 C 2,2 C 91 % 90 % 58 % 1004,1 hPa 0,0 l/m 6,1 km/h (2 Bft) W-SW 247 0 min 0,0 UV-I 6,7 C 10,3 C 4,2 km/h (1 Bft)
17.09.2013 10:20 8,3 C 21,0 C 9,4 C 10,3 C 10,3 C 2,0 C 91 % 90 % 53 % 1004,1 hPa 0,0 l/m 5,6 km/h (1 Bft) S 180 0 min 0,0 UV-I 6,9 C 10,3 C 9,0 km/h (2 Bft)
17.09.2013 10:25 8,3 C 20,9 C 9,5 C 10,4 C 10,4 C 2,1 C 91 % 90 % 55 % 1004,1 hPa 0,0 l/m 5,1 km/h (1 Bft) S-SW 202 0 min 0,0 UV-I 6,9 C 10,4 C 2,7 km/h (1 Bft)
17.09.2013 10:30 8,4 C 20,9 C 9,7 C 10,3 C 10,3 C 1,9 C 90 % 90 % 50 % 1004,1 hPa 0,0 l/m 6,0 km/h (2 Bft) SW 225 0 min 0,0 UV-I 6,9 C 10,3 C 7,1 km/h (2 Bft)
17.09.2013 10:35 8,6 C 20,8 C 9,9 C 11,3 C 11,3 C 2,7 C 90 % 90 % 71 % 1004,2 hPa 0,0 l/m 5,1 km/h (1 Bft) S-SW 202 0 min 0,0 UV-I 7,1 C 11,3 C 9,0 km/h (2 Bft)
17.09.2013 10:40 8,9 C 20,8 C 10,1 C 11,9 C 11,9 C 3,0 C 90 % 89 % 79 % 1004,2 hPa 0,0 l/m 5,0 km/h (1 Bft) W 270 0 min 0,0 UV-I 7,4 C 11,9 C 9,8 km/h (2 Bft)
17.09.2013 10:45 9,1 C 20,8 C 10,0 C 11,8 C 11,8 C 2,7 C 89 % 89 % 71 % 1004,2 hPa 0,0 l/m 5,6 km/h (1 Bft) W-SW 247 0 min 0,0 UV-I 7,4 C 11,8 C 4,2 km/h (1 Bft)
17.09.2013 10:50 9,2 C 20,7 C 10,0 C 12,1 C 12,1 C 2,9 C 87 % 89 % 76 % 1004,2 hPa 0,0 l/m 5,1 km/h (1 Bft) S 180 0 min 0,0 UV-I 7,2 C 12,1 C 8,5 km/h (2 Bft)
17.09.2013 10:55 9,3 C 20,7 C 10,0 C 12,1 C 12,1 C 2,8 C 86 % 89 % 74 % 1004,6 hPa 0,0 l/m 5,0 km/h (1 Bft) NO 45 0 min 0,0 UV-I 7,1 C 12,1 C 6,3 km/h (2 Bft)
17.09.2013 11:00 9,6 C 20,7 C 10,1 C 11,8 C 11,8 C 2,2 C 85 % 89 % 58 % 1004,6 hPa 0,0 l/m 5,6 km/h (1 Bft) SW 225 0 min 0,0 UV-I 7,2 C 11,8 C 7,6 km/h (2 Bft)
17.09.2013 11:05 9,6 C 20,7 C 10,3 C 11,9 C 11,9 C 2,3 C 85 % 89 % 61 % 1004,6 hPa 0,0 l/m 5,5 km/h (1 Bft) S-SW 202 0 min 0,0 UV-I 7,2 C 11,9 C 11,1 km/h (2 Bft)
17.09.2013 11:10 10,0 C 20,7 C 10,4 C 12,1 C 12,1 C 2,1 C 83 % 89 % 55 % 1004,6 hPa 0,0 l/m 6,3 km/h (2 Bft) S-SW 202 0 min 0,0 UV-I 7,2 C 12,1 C 16,9 km/h (3 Bft)
17.09.2013 11:15 10,4 C 20,7 C 10,5 C 12,4 C 12,4 C 2,0 C 83 % 89 % 53 % 1004,5 hPa 0,0 l/m 7,1 km/h (2 Bft) W-SW 247 0 min 0,0 UV-I 7,6 C 12,4 C 4,8 km/h (1 Bft)
17.09.2013 11:20 10,5 C 20,7 C 10,7 C 12,0 C 12,0 C 1,5 C 81 % 89 % 39 % 1004,5 hPa 0,0 l/m 7,6 km/h (2 Bft) W-SW 247 0 min 0,0 UV-I 7,4 C 12,0 C 19,6 km/h (3 Bft)
17.09.2013 11:25 10,5 C 20,7 C 10,8 C 12,1 C 12,1 C 1,6 C 81 % 89 % 42 % 1004,5 hPa 0,0 l/m 7,2 km/h (2 Bft) SW 225 0 min 0,0 UV-I 7,4 C 12,1 C 8,5 km/h (2 Bft)
17.09.2013 11:30 10,7 C 20,6 C 11,0 C 12,3 C 12,3 C 1,6 C 81 % 89 % 42 % 1004,5 hPa 0,0 l/m 6,9 km/h (2 Bft) S 180 0 min 0,0 UV-I 7,6 C 12,3 C 8,7 km/h (2 Bft)
17.09.2013 11:35 10,8 C 20,6 C 11,2 C 12,7 C 12,7 C 1,9 C 80 % 89 % 50 % 1004,8 hPa 0,0 l/m 7,1 km/h (2 Bft) W-SW 247 0 min 0,0 UV-I 7,5 C 12,7 C 10,8 km/h (2 Bft)
17.09.2013 11:40 11,1 C 20,6 C 11,1 C 12,4 C 12,4 C 1,3 C 78 % 89 % 34 % 1004,8 hPa 0,0 l/m 7,2 km/h (2 Bft) S 180 0 min 0,0 UV-I 7,4 C 12,4 C 9,8 km/h (2 Bft)
17.09.2013 11:45 11,1 C 20,6 C 11,2 C 12,3 C 12,3 C 1,2 C 79 % 89 % 32 % 1004,8 hPa 0,0 l/m 6,8 km/h (2 Bft) S-SW 202 0 min 0,0 UV-I 7,6 C 12,3 C 8,7 km/h (2 Bft)
17.09.2013 11:50 11,4 C 20,6 C 11,5 C 12,7 C 12,7 C 1,3 C 79 % 89 % 34 % 1004,8 hPa 0,0 l/m 6,4 km/h (2 Bft) SO 135 0 min 0,0 UV-I 7,9 C 12,7 C 5,1 km/h (1 Bft)
17.09.2013 11:55 11,7 C 20,6 C 11,6 C 13,1 C 13,1 C 1,4 C 78 % 89 % 37 % 1004,7 hPa 0,0 l/m 6,1 km/h (2 Bft) W 270 0 min 0,0 UV-I 8,0 C 13,1 C 13,2 km/h (3 Bft)
17.09.2013 12:00 11,9 C 20,6 C 12,9 C 12,9 C 12,9 C 1,0 C 75 % 89 % 26 % 1004,7 hPa 0,0 l/m 7,4 km/h (2 Bft) O-NO 67 0 min 0,0 UV-I 7,6 C 12,9 C 13,8 km/h (3 Bft)
17.09.2013 12:05 11,9 C 20,6 C 13,5 C 12,9 C 12,9 C 1,0 C 75 % 89 % 26 % 1004,7 hPa 0,0 l/m 7,7 km/h (2 Bft) NW 315 0 min 0,0 UV-I 7,6 C 12,9 C 3,1 km/h (1 Bft)
17.09.2013 12:10 12,1 C 20,6 C 14,0 C 13,4 C 13,4 C 1,3 C 74 % 89 % 34 % 1004,7 hPa 0,0 l/m 7,1 km/h (2 Bft) W-SW 247 0 min 0,0 UV-I 7,6 C 13,4 C 7,9 km/h (2 Bft)
17.09.2013 12:15 12,0 C 20,6 C 14,2 C 13,3 C 13,3 C 1,3 C 73 % 88 % 34 % 1004,5 hPa 0,0 l/m 6,9 km/h (2 Bft) S-SW 202 0 min 0,0 UV-I 7,3 C 13,3 C 10,3 km/h (2 Bft)
17.09.2013 12:20 12,1 C 20,6 C 14,1 C 13,2 C 12,9 C 1,1 C 73 % 88 % 29 % 1004,5 hPa 0,0 l/m 8,2 km/h (2 Bft) W-SW 247 0 min 0,0 UV-I 7,4 C 12,9 C 13,2 km/h (3 Bft)
17.09.2013 12:25 12,2 C 20,6 C 13,9 C 14,1 C 14,1 C 1,9 C 73 % 87 % 50 % 1004,5 hPa 0,0 l/m 7,6 km/h (2 Bft) W-NW 292 0 min 0,0 UV-I 7,5 C 14,1 C 8,0 km/h (2 Bft)
17.09.2013 12:30 12,4 C 20,6 C 13,8 C 15,7 C 15,7 C 3,3 C 72 % 87 % 87 % 1004,5 hPa 0,0 l/m 6,6 km/h (2 Bft) W 270 5 min 0,0 UV-I 7,5 C 15,7 C 7,1 km/h (2 Bft)
17.09.2013 12:35 12,5 C 20,6 C 13,9 C 15,9 C 15,9 C 3,4 C 72 % 86 % 89 % 1004,5 hPa 0,0 l/m 6,3 km/h (2 Bft) S-SO 157 5 min 0,0 UV-I 7,6 C 15,9 C 6,0 km/h (2 Bft)
17.09.2013 12:40 12,7 C 20,6 C 14,4 C 16,0 C 16,0 C 3,3 C 72 % 86 % 87 % 1004,5 hPa 0,0 l/m 6,9 km/h (2 Bft) S-SO 157 5 min 0,0 UV-I 7,8 C 16,0 C 7,4 km/h (2 Bft)
17.09.2013 12:45 12,9 C 20,5 C 14,6 C 17,1 C 17,1 C 4,2 C 72 % 86 % 100 % 1004,5 hPa 0,0 l/m 6,6 km/h (2 Bft) N-NO 22 5 min 0,0 UV-I 8,0 C 17,1 C 10,5 km/h (2 Bft)
17.09.2013 12:50 13,1 C 20,5 C 15,5 C 17,6 C 17,6 C 4,5 C 71 % 85 % 100 % 1004,5 hPa 0,0 l/m 6,8 km/h (2 Bft) W-NW 292 5 min 0,0 UV-I 8,0 C 17,6 C 7,7 km/h (2 Bft)
17.09.2013 12:55 13,2 C 20,5 C 15,9 C 18,3 C 18,3 C 5,1 C 70 % 85 % 100 % 1004,1 hPa 0,0 l/m 6,9 km/h (2 Bft) N-NO 22 5 min 0,0 UV-I 7,9 C 18,3 C 9,8 km/h (2 Bft)
17.09.2013 13:00 13,1 C 20,5 C 14,7 C 16,9 C 16,9 C 3,8 C 69 % 83 % 100 % 1004,1 hPa 0,0 l/m 6,4 km/h (2 Bft) SW 225 5 min 0,0 UV-I 7,5 C 16,9 C 4,5 km/h (1 Bft)
17.09.2013 13:05 13,0 C 20,4 C 14,2 C 15,9 C 15,9 C 2,9 C 69 % 83 % 76 % 1004,1 hPa 0,0 l/m 6,3 km/h (2 Bft) W-SW 247 0 min 0,0 UV-I 7,4 C 15,9 C 5,6 km/h (1 Bft)
17.09.2013 13:10 13,0 C 20,4 C 14,1 C 15,4 C 15,4 C 2,4 C 69 % 83 % 63 % 1004,1 hPa 0,0 l/m 6,9 km/h (2 Bft) W-SW 247 0 min 0,0 UV-I 7,4 C 15,4 C 7,1 km/h (2 Bft)
17.09.2013 13:15 13,2 C 20,4 C 14,0 C 16,1 C 16,1 C 2,9 C 69 % 83 % 76 % 1004,4 hPa 0,0 l/m 7,4 km/h (2 Bft) SW 225 0 min 0,0 UV-I 7,6 C 16,1 C 3,2 km/h (1 Bft)
17.09.2013 13:20 13,1 C 20,4 C 13,6 C 15,5 C 15,5 C 2,4 C 67 % 82 % 63 % 1004,4 hPa 0,0 l/m 7,2 km/h (2 Bft) W 270 0 min 0,0 UV-I 7,1 C 15,5 C 12,1 km/h (2 Bft)
17.09.2013 13:25 12,8 C 20,4 C 13,3 C 14,9 C 14,6 C 2,1 C 66 % 82 % 55 % 1004,4 hPa 0,0 l/m 7,9 km/h (2 Bft) W-NW 292 0 min 0,0 UV-I 6,6 C 14,6 C 8,7 km/h (2 Bft)
17.09.2013 13:30 12,7 C 20,4 C 13,2 C 14,2 C 13,9 C 1,5 C 68 % 82 % 39 % 1004,4 hPa 0,0 l/m 8,2 km/h (2 Bft) N-NO 22 0 min 0,0 UV-I 6,9 C 13,9 C 21,4 km/h (4 Bft)
17.09.2013 13:35 12,7 C 20,4 C 13,1 C 13,9 C 13,9 C 1,2 C 68 % 82 % 32 % 1004,6 hPa 0,0 l/m 6,6 km/h (2 Bft) N-NO 22 0 min 0,0 UV-I 6,9 C 13,9 C 8,2 km/h (2 Bft)
17.09.2013 13:40 12,6 C 20,4 C 13,1 C 13,7 C 13,7 C 1,1 C 69 % 82 % 29 % 1004,6 hPa 0,0 l/m 6,1 km/h (2 Bft) W 270 0 min 0,0 UV-I 7,1 C 13,7 C 5,5 km/h (1 Bft)
17.09.2013 13:45 12,7 C 20,4 C 12,8 C 13,5 C 13,5 C 0,8 C 69 % 82 % 21 % 1004,6 hPa 0,0 l/m 6,0 km/h (2 Bft) W 270 0 min 0,0 UV-I 7,2 C 13,5 C 12,7 km/h (3 Bft)
17.09.2013 13:50 12,5 C 20,4 C 12,8 C 13,4 C 13,4 C 0,9 C 70 % 82 % 24 % 1004,6 hPa 0,0 l/m 5,8 km/h (2 Bft) NW 315 0 min 0,0 UV-I 7,2 C 13,4 C 4,8 km/h (1 Bft)
17.09.2013 13:55 12,5 C 20,4 C 12,8 C 13,3 C 13,3 C 0,8 C 70 % 82 % 21 % 1004,4 hPa 0,0 l/m 5,3 km/h (1 Bft) NW 315 0 min 0,0 UV-I 7,2 C 13,3 C 5,1 km/h (1 Bft)
17.09.2013 14:00 12,4 C 20,4 C 12,5 C 12,6 C 12,6 C 0,2 C 71 % 82 % 5 % 1004,4 hPa 0,0 l/m 4,3 km/h (1 Bft) SW 225 0 min 0,0 UV-I 7,3 C 12,6 C 4,0 km/h (1 Bft)
17.09.2013 14:05 12,3 C 20,4 C 12,3 C 12,2 C 12,0 C 0,0 C 72 % 82 % 0 % 1004,4 hPa 0,0 l/m 4,0 km/h (1 Bft) SW 225 0 min 0,0 UV-I 7,4 C 12,0 C 5,0 km/h (1 Bft)
17.09.2013 14:10 12,1 C 20,4 C 12,3 C 11,9 C 11,6 C 0,0 C 72 % 83 % 0 % 1004,4 hPa 0,0 l/m 3,9 km/h (1 Bft) SW 225 0 min 0,0 UV-I 7,2 C 11,6 C 7,9 km/h (2 Bft)
17.09.2013 14:15 12,0 C 20,4 C 12,4 C 11,9 C 11,8 C 0,0 C 73 % 83 % 0 % 1004,6 hPa 0,0 l/m 4,3 km/h (1 Bft) W 270 0 min 0,0 UV-I 7,3 C 11,8 C 6,6 km/h (2 Bft)
17.09.2013 14:20 12,2 C 20,4 C 12,5 C 12,6 C 12,6 C 0,4 C 73 % 83 % 11 % 1004,6 hPa 0,0 l/m 4,3 km/h (1 Bft) SW 225 0 min 0,0 UV-I 7,5 C 12,6 C 6,3 km/h (2 Bft)
17.09.2013 14:25 12,2 C 20,4 C 12,5 C 13,0 C 13,0 C 0,8 C 73 % 83 % 21 % 1004,6 hPa 0,0 l/m 3,9 km/h (1 Bft) W-SW 247 0 min 0,0 UV-I 7,5 C 13,0 C 6,6 km/h (2 Bft)
17.09.2013 14:30 12,3 C 20,4 C 12,5 C 13,2 C 13,2 C 0,9 C 72 % 82 % 24 % 1004,6 hPa 0,0 l/m 3,4 km/h (1 Bft) W-SW 247 0 min 0,0 UV-I 7,4 C 13,2 C 2,6 km/h (1 Bft)
17.09.2013 14:35 12,3 C 20,4 C 12,5 C 13,1 C 13,1 C 0,8 C 72 % 82 % 21 % 1004,5 hPa 0,0 l/m 4,2 km/h (1 Bft) W-SW 247 0 min 0,0 UV-I 7,4 C 13,1 C 4,8 km/h (1 Bft)
17.09.2013 14:40 12,4 C 20,4 C 12,6 C 13,5 C 13,5 C 1,1 C 72 % 82 % 29 % 1004,5 hPa 0,0 l/m 4,0 km/h (1 Bft) SW 225 0 min 0,0 UV-I 7,5 C 13,5 C 3,4 km/h (1 Bft)
17.09.2013 14:45 12,4 C 20,4 C 12,9 C 14,2 C 14,2 C 1,8 C 72 % 82 % 47 % 1004,5 hPa 0,0 l/m 3,9 km/h (1 Bft) W-SW 247 0 min 0,0 UV-I 7,5 C 14,2 C 5,8 km/h (2 Bft)
17.09.2013 14:50 12,9 C 20,4 C 13,2 C 15,4 C 15,4 C 2,5 C 71 % 82 % 66 % 1004,5 hPa 0,0 l/m 4,0 km/h (1 Bft) SW 225 0 min 0,0 UV-I 7,8 C 15,4 C 8,2 km/h (2 Bft)
17.09.2013 14:55 12,9 C 20,4 C 13,3 C 15,8 C 15,8 C 2,9 C 70 % 82 % 76 % 1004,4 hPa 0,0 l/m 4,3 km/h (1 Bft) W 270 0 min 0,0 UV-I 7,6 C 15,8 C 3,9 km/h (1 Bft)
17.09.2013 15:00 13,1 C 20,4 C 13,5 C 15,7 C 15,7 C 2,6 C 69 % 82 % 68 % 1004,4 hPa 0,0 l/m 4,5 km/h (1 Bft) W-SW 247 0 min 0,0 UV-I 7,5 C 15,7 C 6,4 km/h (2 Bft)
17.09.2013 15:05 13,2 C 20,4 C 13,5 C 15,6 C 15,6 C 2,4 C 68 % 81 % 63 % 1004,4 hPa 0,0 l/m 4,8 km/h (1 Bft) S 180 0 min 0,0 UV-I 7,4 C 15,6 C 6,0 km/h (2 Bft)
17.09.2013 15:10 13,3 C 20,4 C 13,5 C 15,7 C 15,7 C 2,4 C 67 % 81 % 63 % 1004,4 hPa 0,0 l/m 5,0 km/h (1 Bft) W-SW 247 0 min 0,0 UV-I 7,3 C 15,7 C 11,4 km/h (2 Bft)
17.09.2013 15:15 13,2 C 20,4 C 13,2 C 15,2 C 15,2 C 2,0 C 67 % 80 % 53 % 1004,4 hPa 0,0 l/m 5,6 km/h (1 Bft) W-SW 247 0 min 0,0 UV-I 7,2 C 15,2 C 6,6 km/h (2 Bft)
17.09.2013 15:20 13,1 C 20,4 C 12,9 C 14,3 C 14,3 C 1,2 C 66 % 80 % 32 % 1004,4 hPa 0,0 l/m 5,8 km/h (2 Bft) S-SO 157 0 min 0,0 UV-I 6,9 C 14,3 C 5,0 km/h (1 Bft)
17.09.2013 15:25 12,9 C 20,4 C 12,8 C 13,9 C 13,9 C 1,0 C 66 % 80 % 26 % 1004,4 hPa 0,0 l/m 6,0 km/h (2 Bft) S-SO 157 0 min 0,0 UV-I 6,7 C 13,9 C 7,6 km/h (2 Bft)
17.09.2013 15:30 12,9 C 20,4 C 12,9 C 13,8 C 13,8 C 0,9 C 67 % 80 % 24 % 1004,4 hPa 0,0 l/m 5,6 km/h (1 Bft) S-SW 202 0 min 0,0 UV-I 6,9 C 13,8 C 6,8 km/h (2 Bft)
17.09.2013 15:35 13,0 C 20,4 C 13,1 C 14,2 C 14,2 C 1,2 C 67 % 80 % 32 % 1004,2 hPa 0,0 l/m 5,5 km/h (1 Bft) W-SW 247 0 min 0,0 UV-I 7,0 C 14,2 C 4,0 km/h (1 Bft)
17.09.2013 15:40 13,4 C 20,4 C 13,5 C 15,6 C 15,6 C 2,2 C 66 % 80 % 58 % 1004,2 hPa 0,0 l/m 5,5 km/h (1 Bft) SW 225 0 min 0,0 UV-I 7,2 C 15,6 C 6,4 km/h (2 Bft)
17.09.2013 15:45 13,6 C 20,4 C 13,5 C 15,6 C 15,6 C 2,0 C 65 % 79 % 53 % 1004,2 hPa 0,0 l/m 5,8 km/h (2 Bft) W-SW 247 0 min 0,0 UV-I 7,1 C 15,6 C 7,7 km/h (2 Bft)
17.09.2013 15:50 14,1 C 20,4 C 13,9 C 16,4 C 16,4 C 2,3 C 65 % 79 % 61 % 1004,2 hPa 0,0 l/m 6,1 km/h (2 Bft) W-SW 247 0 min 0,0 UV-I 7,6 C 16,4 C 6,1 km/h (2 Bft)
17.09.2013 15:55 14,4 C 20,4 C 13,9 C 17,1 C 17,1 C 2,7 C 64 % 79 % 71 % 1004,1 hPa 0,0 l/m 5,5 km/h (1 Bft) W-SW 247 0 min 0,0 UV-I 7,7 C 17,1 C 7,1 km/h (2 Bft)
17.09.2013 16:00 14,1 C 20,4 C 13,6 C 16,0 C 16,0 C 1,9 C 63 % 78 % 50 % 1004,1 hPa 0,0 l/m 5,6 km/h (1 Bft) SW 225 0 min 0,0 UV-I 7,2 C 16,0 C 8,4 km/h (2 Bft)
17.09.2013 16:05 13,8 C 20,4 C 13,3 C 15,2 C 15,2 C 1,4 C 63 % 78 % 37 % 1004,1 hPa 0,0 l/m 5,5 km/h (1 Bft) S-SW 202 0 min 0,0 UV-I 6,9 C 15,2 C 6,8 km/h (2 Bft)
17.09.2013 16:10 13,7 C 20,4 C 13,2 C 14,8 C 14,8 C 1,1 C 63 % 78 % 29 % 1004,1 hPa 0,0 l/m 5,6 km/h (1 Bft) SW 225 0 min 0,0 UV-I 6,8 C 14,8 C 13,0 km/h (3 Bft)
17.09.2013 16:15 13,6 C 20,4 C 13,2 C 14,7 C 14,7 C 1,1 C 63 % 78 % 29 % 1003,9 hPa 0,0 l/m 5,6 km/h (1 Bft) W-SW 247 0 min 0,0 UV-I 6,7 C 14,7 C 8,0 km/h (2 Bft)
17.09.2013 16:20 13,9 C 20,4 C 13,8 C 16,1 C 16,1 C 2,2 C 64 % 79 % 58 % 1003,9 hPa 0,0 l/m 5,5 km/h (1 Bft) S-SO 157 0 min 0,0 UV-I 7,2 C 16,1 C 6,0 km/h (2 Bft)
17.09.2013 16:25 14,0 C 20,4 C 14,3 C 17,6 C 17,6 C 3,6 C 64 % 78 % 95 % 1003,9 hPa 0,0 l/m 5,3 km/h (1 Bft) W 270 5 min 0,0 UV-I 7,3 C 17,6 C 4,0 km/h (1 Bft)
17.09.2013 16:30 14,3 C 20,4 C 14,4 C 18,5 C 18,5 C 4,2 C 64 % 77 % 100 % 1003,9 hPa 0,0 l/m 5,1 km/h (1 Bft) W-SW 247 5 min 0,0 UV-I 7,6 C 18,5 C 6,3 km/h (2 Bft)
17.09.2013 16:35 14,4 C 20,4 C 14,7 C 19,1 C 19,1 C 4,7 C 62 % 77 % 100 % 1004,2 hPa 0,0 l/m 6,1 km/h (2 Bft) S 180 5 min 0,0 UV-I 7,2 C 19,1 C 6,4 km/h (2 Bft)
17.09.2013 16:40 14,3 C 20,4 C 14,5 C 18,5 C 18,5 C 4,2 C 61 % 75 % 100 % 1004,2 hPa 0,0 l/m 6,8 km/h (2 Bft) SW 225 5 min 0,0 UV-I 6,9 C 18,5 C 4,8 km/h (1 Bft)
17.09.2013 16:45 14,3 C 20,4 C 14,3 C 17,6 C 17,6 C 3,3 C 62 % 76 % 87 % 1004,2 hPa 0,0 l/m 6,3 km/h (2 Bft) S-SW 202 5 min 0,0 UV-I 7,1 C 17,6 C 6,8 km/h (2 Bft)
17.09.2013 16:50 14,1 C 20,4 C 14,3 C 17,2 C 17,2 C 3,1 C 62 % 75 % 82 % 1004,2 hPa 0,0 l/m 6,4 km/h (2 Bft) SW 225 0 min 0,0 UV-I 6,9 C 17,2 C 9,0 km/h (2 Bft)
17.09.2013 16:55 14,1 C 20,4 C 14,1 C 16,3 C 16,3 C 2,2 C 61 % 74 % 58 % 1004,1 hPa 0,0 l/m 6,8 km/h (2 Bft) NW 315 0 min 0,0 UV-I 6,7 C 16,3 C 6,0 km/h (2 Bft)
17.09.2013 17:00 14,0 C 20,4 C 14,3 C 16,8 C 16,8 C 2,8 C 62 % 74 % 74 % 1004,1 hPa 0,0 l/m 7,2 km/h (2 Bft) W-SW 247 0 min 0,0 UV-I 6,8 C 16,8 C 5,1 km/h (1 Bft)
17.09.2013 17:05 14,0 C 20,4 C 14,4 C 17,5 C 17,5 C 3,5 C 61 % 74 % 92 % 1004,1 hPa 0,0 l/m 7,2 km/h (2 Bft) S-SO 157 5 min 0,0 UV-I 6,6 C 17,5 C 4,3 km/h (1 Bft)
17.09.2013 17:10 13,9 C 20,4 C 14,4 C 17,1 C 17,1 C 3,2 C 60 % 73 % 84 % 1004,1 hPa 0,0 l/m 6,8 km/h (2 Bft) W-SW 247 0 min 0,0 UV-I 6,3 C 17,1 C 11,1 km/h (2 Bft)
17.09.2013 17:15 13,9 C 20,4 C 14,8 C 17,1 C 17,1 C 3,2 C 62 % 74 % 84 % 1004,0 hPa 0,0 l/m 6,4 km/h (2 Bft) SW 225 5 min 0,0 UV-I 6,7 C 17,1 C 7,7 km/h (2 Bft)
17.09.2013 17:20 14,0 C 20,4 C 15,6 C 18,0 C 18,0 C 4,0 C 63 % 76 % 100 % 1004,0 hPa 0,0 l/m 5,3 km/h (1 Bft) SW 225 5 min 0,0 UV-I 7,1 C 18,0 C 8,4 km/h (2 Bft)
17.09.2013 17:25 14,1 C 20,4 C 15,5 C 18,2 C 18,2 C 4,1 C 59 % 73 % 100 % 1004,0 hPa 0,0 l/m 5,5 km/h (1 Bft) SW 225 5 min 0,0 UV-I 6,2 C 18,2 C 8,0 km/h (2 Bft)
17.09.2013 17:30 14,0 C 20,4 C 14,9 C 18,1 C 18,1 C 4,1 C 60 % 72 % 100 % 1004,0 hPa 0,0 l/m 5,5 km/h (1 Bft) S-SW 202 5 min 0,0 UV-I 6,4 C 18,1 C 6,4 km/h (2 Bft)
17.09.2013 17:35 14,0 C 20,4 C 14,7 C 18,2 C 18,2 C 4,2 C 61 % 71 % 100 % 1004,2 hPa 0,0 l/m 4,5 km/h (1 Bft) W-SW 247 5 min 0,0 UV-I 6,6 C 18,2 C 7,7 km/h (2 Bft)
17.09.2013 17:40 14,0 C 20,4 C 14,3 C 17,7 C 17,7 C 3,7 C 61 % 71 % 97 % 1004,2 hPa 0,0 l/m 4,2 km/h (1 Bft) W-SW 247 5 min 0,0 UV-I 6,6 C 17,7 C 4,3 km/h (1 Bft)
17.09.2013 17:45 13,9 C 20,4 C 14,1 C 16,8 C 16,8 C 2,9 C 61 % 71 % 76 % 1004,2 hPa 0,0 l/m 4,5 km/h (1 Bft) W-SW 247 5 min 0,0 UV-I 6,5 C 16,8 C 4,7 km/h (1 Bft)
17.09.2013 17:50 13,7 C 20,4 C 13,9 C 16,3 C 16,3 C 2,6 C 61 % 71 % 68 % 1004,2 hPa 0,0 l/m 4,5 km/h (1 Bft) S 180 5 min 0,0 UV-I 6,3 C 16,3 C 6,6 km/h (2 Bft)
17.09.2013 17:55 13,6 C 20,4 C 13,6 C 15,1 C 15,1 C 1,5 C 62 % 71 % 39 % 1004,2 hPa 0,0 l/m 4,8 km/h (1 Bft) SW 225 0 min 0,0 UV-I 6,5 C 15,1 C 10,8 km/h (2 Bft)
17.09.2013 18:00 13,5 C 20,4 C 13,3 C 14,1 C 14,1 C 0,6 C 62 % 71 % 16 % 1004,2 hPa 0,0 l/m 4,8 km/h (1 Bft) S-SW 202 0 min 0,0 UV-I 6,4 C 14,1 C 6,6 km/h (2 Bft)
17.09.2013 18:05 13,3 C 20,4 C 13,3 C 14,0 C 14,0 C 0,7 C 62 % 71 % 18 % 1004,2 hPa 0,0 l/m 4,8 km/h (1 Bft) W-SW 247 0 min 0,0 UV-I 6,2 C 14,0 C 4,2 km/h (1 Bft)
17.09.2013 18:10 13,2 C 20,4 C 13,2 C 14,2 C 14,2 C 1,0 C 63 % 72 % 26 % 1004,2 hPa 0,0 l/m 3,9 km/h (1 Bft) N 360 0 min 0,0 UV-I 6,3 C 14,2 C 1,8 km/h (1 Bft)
17.09.2013 18:15 13,2 C 20,4 C 13,1 C 13,9 C 13,9 C 0,7 C 64 % 72 % 18 % 1004,6 hPa 0,0 l/m 2,3 km/h (1 Bft) O-NO 67 0 min 0,0 UV-I 6,5 C 13,9 C 4,0 km/h (1 Bft)
17.09.2013 18:20 13,1 C 20,4 C 12,8 C 13,2 C 13,2 C 0,1 C 64 % 73 % 3 % 1004,6 hPa 0,0 l/m 2,4 km/h (1 Bft) N-NW 337 0 min 0,0 UV-I 6,4 C 13,2 C 5,1 km/h (1 Bft)
17.09.2013 18:25 12,9 C 20,4 C 12,6 C 12,9 C 12,8 C 0,0 C 64 % 72 % 0 % 1004,6 hPa 0,0 l/m 3,4 km/h (1 Bft) W-SW 247 0 min 0,0 UV-I 6,3 C 12,8 C 3,9 km/h (1 Bft)
17.09.2013 18:30 12,7 C 20,4 C 12,5 C 12,6 C 12,5 C 0,0 C 65 % 73 % 0 % 1004,6 hPa 0,0 l/m 3,4 km/h (1 Bft) S 180 0 min 0,0 UV-I 6,3 C 12,5 C 3,1 km/h (1 Bft)
17.09.2013 18:35 12,6 C 20,4 C 12,3 C 12,4 C 12,1 C 0,0 C 66 % 73 % 0 % 1004,8 hPa 0,0 l/m 2,4 km/h (1 Bft) SW 225 0 min 0,0 UV-I 6,4 C 12,1 C 2,3 km/h (1 Bft)
17.09.2013 18:40 12,4 C 20,4 C 12,2 C 12,2 C 11,8 C 0,0 C 66 % 73 % 0 % 1004,8 hPa 0,0 l/m 1,1 km/h (1 Bft) W-SW 247 0 min 0,0 UV-I 6,2 C 11,8 C 1,9 km/h (1 Bft)
17.09.2013 18:45 12,3 C 20,4 C 12,1 C 12,1 C 11,6 C 0,0 C 67 % 74 % 0 % 1004,8 hPa 0,0 l/m 0,6 km/h (0 Bft) SW 225 0 min 0,0 UV-I 6,4 C 11,6 C 0,0 km/h (0 Bft)
17.09.2013 18:50 12,1 C 20,4 C 12,1 C 11,9 C 11,5 C 0,0 C 68 % 74 % 0 % 1004,8 hPa 0,0 l/m 0,5 km/h (0 Bft) W 270 0 min 0,0 UV-I 6,4 C 11,5 C 1,8 km/h (1 Bft)
17.09.2013 18:55 12,1 C 20,4 C 11,9 C 11,8 C 11,2 C 0,0 C 69 % 75 % 0 % 1005,0 hPa 0,0 l/m 0,5 km/h (0 Bft) O-SO 112 0 min 0,0 UV-I 6,6 C 11,2 C 0,0 km/h (0 Bft)
17.09.2013 19:00 11,9 C 20,4 C 11,6 C 11,6 C 10,9 C 0,0 C 69 % 75 % 0 % 1005,0 hPa 0,0 l/m 0,2 km/h (0 Bft) N-NW 337 0 min 0,0 UV-I 6,4 C 10,9 C 0,0 km/h (0 Bft)
17.09.2013 19:05 11,7 C 20,4 C 11,5 C 11,5 C 11,0 C 0,0 C 69 % 76 % 0 % 1005,0 hPa 0,0 l/m 0,2 km/h (0 Bft) W 270 0 min 0,0 UV-I 6,2 C 11,0 C 0,0 km/h (0 Bft)
17.09.2013 19:10 11,6 C 20,4 C 11,5 C 11,5 C 11,2 C 0,0 C 70 % 76 % 0 % 1005,0 hPa 0,0 l/m 0,3 km/h (0 Bft) SW 225 0 min 0,0 UV-I 6,3 C 11,2 C 1,8 km/h (1 Bft)
17.09.2013 19:15 11,5 C 20,4 C 11,4 C 11,4 C 11,1 C 0,0 C 70 % 76 % 0 % 1004,6 hPa 0,0 l/m 0,3 km/h (0 Bft) S-SO 157 0 min 0,0 UV-I 6,2 C 11,1 C 0,0 km/h (0 Bft)
17.09.2013 19:20 11,5 C 20,4 C 11,3 C 11,3 C 10,8 C 0,0 C 71 % 76 % 0 % 1004,6 hPa 0,0 l/m 0,2 km/h (0 Bft) SO 135 0 min 0,0 UV-I 6,4 C 10,8 C 0,0 km/h (0 Bft)
17.09.2013 19:25 11,3 C 20,4 C 11,2 C 11,0 C 10,4 C 0,0 C 71 % 76 % 0 % 1004,6 hPa 0,0 l/m 0,0 km/h (0 Bft) S 180 0 min 0,0 UV-I 6,2 C 10,4 C 0,0 km/h (0 Bft)
17.09.2013 19:30 11,1 C 20,4 C 10,9 C 10,8 C 10,1 C 0,0 C 71 % 76 % 0 % 1004,6 hPa 0,0 l/m 0,2 km/h (0 Bft) SW 225 0 min 0,0 UV-I 6,0 C 10,1 C 1,8 km/h (1 Bft)
17.09.2013 19:35 11,0 C 20,5 C 10,8 C 10,5 C 9,6 C 0,0 C 71 % 76 % 0 % 1004,8 hPa 0,0 l/m 0,0 km/h (0 Bft) NW 315 0 min 0,0 UV-I 5,9 C 9,6 C 0,0 km/h (0 Bft)
17.09.2013 19:40 10,8 C 20,5 C 10,5 C 10,2 C 9,1 C 0,0 C 72 % 77 % 0 % 1004,8 hPa 0,0 l/m 0,0 km/h (0 Bft) W-SW 247 0 min 0,0 UV-I 6,0 C 9,1 C 0,0 km/h (0 Bft)
17.09.2013 19:45 10,6 C 20,5 C 10,3 C 10,0 C 8,9 C 0,0 C 73 % 77 % 0 % 1004,8 hPa 0,0 l/m 0,0 km/h (0 Bft) NW 315 0 min 0,0 UV-I 6,0 C 8,9 C 0,0 km/h (0 Bft)
17.09.2013 19:50 10,4 C 20,5 C 10,1 C 9,8 C 8,6 C 0,0 C 74 % 78 % 0 % 1004,8 hPa 0,0 l/m 0,0 km/h (0 Bft) SO 135 0 min 0,0 UV-I 6,0 C 8,6 C 0,0 km/h (0 Bft)
17.09.2013 19:55 10,1 C 20,5 C 9,9 C 9,5 C 8,4 C 0,0 C 74 % 78 % 0 % 1004,8 hPa 0,0 l/m 0,0 km/h (0 Bft) O-NO 67 0 min 0,0 UV-I 5,7 C 8,4 C 0,0 km/h (0 Bft)
17.09.2013 20:00 10,0 C 20,5 C 9,7 C 9,4 C 8,1 C 0,0 C 75 % 78 % 0 % 1004,8 hPa 0,0 l/m 0,0 km/h (0 Bft) O-NO 67 0 min 0,0 UV-I 5,8 C 8,1 C 0,0 km/h (0 Bft)
17.09.2013 20:05 9,9 C 20,5 C 9,6 C 9,2 C 7,9 C 0,0 C 76 % 79 % 0 % 1004,8 hPa 0,0 l/m 0,0 km/h (0 Bft) NO 45 0 min 0,0 UV-I 5,9 C 7,9 C 0,0 km/h (0 Bft)
17.09.2013 20:10 9,6 C 20,5 C 9,5 C 9,0 C 7,7 C 0,0 C 76 % 80 % 0 % 1004,8 hPa 0,0 l/m 0,0 km/h (0 Bft) NO 45 0 min 0,0 UV-I 5,6 C 7,7 C 0,0 km/h (0 Bft)
17.09.2013 20:15 9,5 C 20,5 C 9,3 C 8,8 C 7,4 C 0,0 C 77 % 80 % 0 % 1005,2 hPa 0,0 l/m 0,0 km/h (0 Bft) NO 45 0 min 0,0 UV-I 5,7 C 7,4 C 0,0 km/h (0 Bft)
17.09.2013 20:20 9,3 C 20,5 C 9,2 C 8,6 C 7,1 C 0,0 C 78 % 80 % 0 % 1005,2 hPa 0,0 l/m 0,0 km/h (0 Bft) W 270 0 min 0,0 UV-I 5,7 C 7,1 C 0,0 km/h (0 Bft)
17.09.2013 20:25 9,0 C 20,5 C 9,1 C 8,3 C 7,0 C 0,0 C 78 % 80 % 0 % 1005,2 hPa 0,0 l/m 0,0 km/h (0 Bft) W-SW 247 0 min 0,0 UV-I 5,4 C 7,0 C 0,0 km/h (0 Bft)
17.09.2013 20:30 8,8 C 20,6 C 8,9 C 8,1 C 6,8 C 0,0 C 78 % 81 % 0 % 1005,2 hPa 0,0 l/m 0,0 km/h (0 Bft) W-SW 247 0 min 0,0 UV-I 5,2 C 6,8 C 0,0 km/h (0 Bft)
17.09.2013 20:35 8,7 C 20,5 C 8,8 C 8,1 C 6,8 C 0,0 C 79 % 81 % 0 % 1005,2 hPa 0,0 l/m 0,0 km/h (0 Bft) NO 45 0 min 0,0 UV-I 5,3 C 6,8 C 0,0 km/h (0 Bft)
17.09.2013 20:40 8,6 C 20,5 C 8,7 C 7,9 C 6,6 C 0,0 C 79 % 81 % 0 % 1005,2 hPa 0,0 l/m 0,0 km/h (0 Bft) SW 225 0 min 0,0 UV-I 5,2 C 6,6 C 0,0 km/h (0 Bft)
17.09.2013 20:45 8,4 C 20,5 C 8,7 C 7,8 C 6,7 C 0,0 C 80 % 81 % 0 % 1005,2 hPa 0,0 l/m 0,0 km/h (0 Bft) S-SW 202 0 min 0,0 UV-I 5,2 C 6,7 C 0,0 km/h (0 Bft)
17.09.2013 20:50 8,3 C 20,5 C 8,6 C 7,7 C 6,6 C 0,0 C 80 % 81 % 0 % 1005,2 hPa 0,0 l/m 0,0 km/h (0 Bft) W-SW 247 0 min 0,0 UV-I 5,1 C 6,6 C 0,0 km/h (0 Bft)
17.09.2013 20:55 8,3 C 20,5 C 8,5 C 7,7 C 6,6 C 0,0 C 81 % 82 % 0 % 1005,2 hPa 0,0 l/m 0,0 km/h (0 Bft) S 180 0 min 0,0 UV-I 5,2 C 6,6 C 0,0 km/h (0 Bft)
17.09.2013 21:00 8,1 C 20,5 C 8,4 C 7,6 C 6,7 C 0,0 C 82 % 82 % 0 % 1005,2 hPa 0,0 l/m 0,2 km/h (0 Bft) S 180 0 min 0,0 UV-I 5,2 C 6,7 C 1,6 km/h (1 Bft)
17.09.2013 21:05 8,0 C 20,5 C 8,4 C 7,6 C 6,8 C 0,0 C 82 % 82 % 0 % 1005,2 hPa 0,0 l/m 0,2 km/h (0 Bft) W-SW 247 0 min 0,0 UV-I 5,1 C 6,8 C 0,0 km/h (0 Bft)
17.09.2013 21:10 8,0 C 20,4 C 8,5 C 7,7 C 7,0 C 0,0 C 82 % 82 % 0 % 1005,2 hPa 0,0 l/m 0,2 km/h (0 Bft) SO 135 0 min 0,0 UV-I 5,1 C 7,0 C 0,0 km/h (0 Bft)
17.09.2013 21:15 8,0 C 20,4 C 8,5 C 7,7 C 7,2 C 0,0 C 82 % 82 % 0 % 1005,2 hPa 0,0 l/m 0,2 km/h (0 Bft) N-NO 22 0 min 0,0 UV-I 5,1 C 7,2 C 0,0 km/h (0 Bft)
17.09.2013 21:20 8,1 C 20,4 C 8,7 C 7,9 C 7,4 C 0,0 C 82 % 82 % 0 % 1005,2 hPa 0,0 l/m 0,2 km/h (0 Bft) S-SW 202 0 min 0,0 UV-I 5,2 C 7,4 C 0,0 km/h (0 Bft)
17.09.2013 21:25 8,1 C 20,4 C 8,7 C 7,9 C 7,4 C 0,0 C 82 % 82 % 0 % 1005,2 hPa 0,0 l/m 0,0 km/h (0 Bft) S-SO 157 0 min 0,0 UV-I 5,2 C 7,4 C 0,0 km/h (0 Bft)
17.09.2013 21:30 8,1 C 20,4 C 8,7 C 7,9 C 7,4 C 0,0 C 82 % 82 % 0 % 1005,2 hPa 0,0 l/m 0,2 km/h (0 Bft) SW 225 0 min 0,0 UV-I 5,2 C 7,4 C 0,0 km/h (0 Bft)
17.09.2013 21:35 8,1 C 20,4 C 8,7 C 7,9 C 7,4 C 0,0 C 82 % 82 % 0 % 1005,1 hPa 0,0 l/m 0,2 km/h (0 Bft) W-SW 247 0 min 0,0 UV-I 5,2 C 7,4 C 0,0 km/h (0 Bft)
17.09.2013 21:40 8,0 C 20,4 C 8,5 C 7,8 C 7,4 C 0,0 C 82 % 82 % 0 % 1005,1 hPa 0,0 l/m 0,2 km/h (0 Bft) S-SW 202 0 min 0,0 UV-I 5,1 C 7,4 C 2,6 km/h (1 Bft)
17.09.2013 21:45 8,0 C 20,4 C 8,6 C 7,8 C 7,4 C 0,0 C 82 % 82 % 0 % 1005,1 hPa 0,0 l/m 0,3 km/h (0 Bft) N-NW 337 0 min 0,0 UV-I 5,1 C 7,4 C 0,0 km/h (0 Bft)
17.09.2013 21:50 8,0 C 20,4 C 8,6 C 7,8 C 7,5 C 0,0 C 82 % 82 % 0 % 1005,1 hPa 0,0 l/m 0,5 km/h (0 Bft) S-SO 157 0 min 0,0 UV-I 5,1 C 7,5 C 3,7 km/h (1 Bft)
17.09.2013 21:55 8,1 C 20,4 C 8,7 C 7,9 C 7,6 C 0,0 C 82 % 82 % 0 % 1004,8 hPa 0,0 l/m 0,8 km/h (0 Bft) W-SW 247 0 min 0,0 UV-I 5,2 C 7,6 C 0,0 km/h (0 Bft)
17.09.2013 22:00 8,3 C 20,4 C 8,7 C 8,1 C 7,6 C 0,0 C 82 % 82 % 0 % 1004,8 hPa 0,0 l/m 0,8 km/h (0 Bft) S 180 0 min 0,0 UV-I 5,4 C 7,6 C 0,0 km/h (0 Bft)
17.09.2013 22:05 8,3 C 20,4 C 8,7 C 8,1 C 7,6 C 0,0 C 81 % 82 % 0 % 1004,8 hPa 0,0 l/m 0,5 km/h (0 Bft) S 180 0 min 0,0 UV-I 5,2 C 7,6 C 0,0 km/h (0 Bft)
17.09.2013 22:10 8,3 C 20,4 C 8,7 C 8,1 C 7,6 C 0,0 C 81 % 82 % 0 % 1004,8 hPa 0,0 l/m 0,3 km/h (0 Bft) S-SW 202 0 min 0,0 UV-I 5,2 C 7,6 C 2,1 km/h (1 Bft)
17.09.2013 22:15 8,3 C 20,4 C 8,6 C 8,0 C 7,5 C 0,0 C 81 % 82 % 0 % 1004,6 hPa 0,0 l/m 0,3 km/h (0 Bft) W-SW 247 0 min 0,0 UV-I 5,2 C 7,5 C 0,0 km/h (0 Bft)
17.09.2013 22:20 8,3 C 20,3 C 8,7 C 8,0 C 7,5 C 0,0 C 81 % 82 % 0 % 1004,6 hPa 0,0 l/m 0,3 km/h (0 Bft) SW 225 0 min 0,0 UV-I 5,2 C 7,5 C 0,0 km/h (0 Bft)
17.09.2013 22:25 8,3 C 20,3 C 8,5 C 8,0 C 7,5 C 0,0 C 81 % 82 % 0 % 1004,6 hPa 0,0 l/m 0,2 km/h (0 Bft) SW 225 0 min 0,0 UV-I 5,2 C 7,5 C 0,0 km/h (0 Bft)
17.09.2013 22:30 8,3 C 20,3 C 8,5 C 8,0 C 7,4 C 0,0 C 81 % 82 % 0 % 1004,6 hPa 0,0 l/m 0,0 km/h (0 Bft) S 180 0 min 0,0 UV-I 5,2 C 7,4 C 0,0 km/h (0 Bft)
17.09.2013 22:35 8,2 C 20,3 C 8,5 C 7,9 C 7,4 C 0,0 C 81 % 82 % 0 % 1004,2 hPa 0,0 l/m 0,2 km/h (0 Bft) NO 45 0 min 0,0 UV-I 5,1 C 7,4 C 0,0 km/h (0 Bft)
17.09.2013 22:40 8,2 C 20,3 C 8,5 C 7,9 C 7,4 C 0,0 C 82 % 82 % 0 % 1004,2 hPa 0,0 l/m 0,3 km/h (0 Bft) W-SW 247 0 min 0,0 UV-I 5,3 C 7,4 C 0,0 km/h (0 Bft)
17.09.2013 22:45 8,2 C 20,4 C 8,6 C 7,9 C 7,4 C 0,0 C 82 % 82 % 0 % 1004,2 hPa 0,0 l/m 0,5 km/h (0 Bft) SW 225 0 min 0,0 UV-I 5,3 C 7,4 C 1,6 km/h (1 Bft)
17.09.2013 22:50 8,3 C 20,4 C 8,7 C 8,0 C 7,4 C 0,0 C 82 % 82 % 0 % 1004,2 hPa 0,0 l/m 0,5 km/h (0 Bft) S-SW 202 0 min 0,0 UV-I 5,4 C 7,4 C 0,0 km/h (0 Bft)
17.09.2013 22:55 8,3 C 20,4 C 8,7 C 8,0 C 7,4 C 0,0 C 82 % 82 % 0 % 1004,2 hPa 0,0 l/m 0,6 km/h (0 Bft) O-NO 67 0 min 0,0 UV-I 5,4 C 7,4 C 0,0 km/h (0 Bft)
17.09.2013 23:00 8,3 C 20,4 C 8,5 C 7,9 C 7,2 C 0,0 C 82 % 82 % 0 % 1004,2 hPa 0,0 l/m 0,5 km/h (0 Bft) SW 225 0 min 0,0 UV-I 5,4 C 7,2 C 0,0 km/h (0 Bft)
17.09.2013 23:05 8,2 C 20,4 C 8,5 C 7,8 C 7,1 C 0,0 C 82 % 82 % 0 % 1004,2 hPa 0,0 l/m 0,3 km/h (0 Bft) S-SO 157 0 min 0,0 UV-I 5,3 C 7,1 C 0,0 km/h (0 Bft)
17.09.2013 23:10 8,1 C 20,4 C 8,3 C 7,8 C 7,1 C 0,0 C 82 % 82 % 0 % 1004,2 hPa 0,0 l/m 0,3 km/h (0 Bft) SW 225 0 min 0,0 UV-I 5,2 C 7,1 C 1,6 km/h (1 Bft)
17.09.2013 23:15 8,0 C 20,4 C 8,3 C 7,7 C 7,0 C 0,0 C 82 % 82 % 0 % 1004,1 hPa 0,0 l/m 0,2 km/h (0 Bft) S-SO 157 0 min 0,0 UV-I 5,1 C 7,0 C 0,0 km/h (0 Bft)
17.09.2013 23:20 8,1 C 20,4 C 8,3 C 7,7 C 6,9 C 0,0 C 82 % 82 % 0 % 1004,1 hPa 0,0 l/m 0,2 km/h (0 Bft) O-SO 112 0 min 0,0 UV-I 5,2 C 6,9 C 0,0 km/h (0 Bft)
17.09.2013 23:25 8,0 C 20,4 C 8,3 C 7,6 C 6,9 C 0,0 C 82 % 82 % 0 % 1004,1 hPa 0,0 l/m 0,3 km/h (0 Bft) W 270 0 min 0,0 UV-I 5,1 C 6,9 C 1,6 km/h (1 Bft)
17.09.2013 23:30 7,9 C 20,4 C 8,1 C 7,6 C 6,9 C 0,0 C 82 % 82 % 0 % 1004,1 hPa 0,0 l/m 0,3 km/h (0 Bft) NW 315 0 min 0,0 UV-I 5,0 C 6,9 C 0,0 km/h (0 Bft)
17.09.2013 23:35 7,9 C 20,4 C 8,0 C 7,5 C 6,8 C 0,0 C 83 % 82 % 0 % 1003,9 hPa 0,0 l/m 0,3 km/h (0 Bft) SO 135 0 min 0,0 UV-I 5,2 C 6,8 C 3,7 km/h (1 Bft)
17.09.2013 23:40 7,9 C 20,4 C 8,0 C 7,6 C 6,9 C 0,0 C 83 % 83 % 0 % 1003,9 hPa 0,0 l/m 0,5 km/h (0 Bft) W-SW 247 0 min 0,0 UV-I 5,2 C 6,9 C 1,6 km/h (1 Bft)
17.09.2013 23:45 7,9 C 20,4 C 8,1 C 7,6 C 7,1 C 0,0 C 83 % 83 % 0 % 1003,9 hPa 0,0 l/m 0,8 km/h (0 Bft) S 180 0 min 0,0 UV-I 5,2 C 7,1 C 2,4 km/h (1 Bft)
17.09.2013 23:50 8,0 C 20,4 C 8,2 C 7,7 C 7,1 C 0,0 C 83 % 83 % 0 % 1003,9 hPa 0,0 l/m 1,0 km/h (0 Bft) SW 225 0 min 0,0 UV-I 5,3 C 7,1 C 1,9 km/h (1 Bft)
17.09.2013 23:55 8,0 C 20,4 C 8,3 C 7,8 C 7,3 C 0,0 C 83 % 83 % 0 % 1004,0 hPa 0,0 l/m 0,8 km/h (0 Bft) SW 225 0 min 0,0 UV-I 5,3 C 7,3 C 1,9 km/h (1 Bft)
_ Min-Zeit 06:55 22:20 06:55 06:55 06:55 02:40 17:25 17:35 00:00 00:58 - 00:00 - - - 00:00 06:55 06:55 00:00
Minimum _ 5,9 C 20,3 C 7,3 C 5,9 C 5,8 C 0,0 C 59 % 71 % 0 % 1000,7 hPa - 0,0 km/h (0 Bft) - - - 0,0 UV-I 4,4 C 5,8 C 0,0 km/h (0 Bft)
_ Max-Zeit 15:55 00:00 12:55 16:35 16:35 12:55 08:15 06:50 12:45 20:15 00:30 12:20 - - 12:30 00:00 11:55 16:35 13:30
Maximum _ 14,4 C 22,3 C 15,9 C 19,1 C 19,1 C 5,1 C 92 % 90 % 100 % 1005,2 hPa 0,7 l/m 8,2 km/h
W-SW (2 Bft)
- - 5 min 0,0 UV-I 8,0 C 19,1 C 21,4 km/h
N-NO (4 Bft)
Durchschnitt _ 9,6 C 21,0 C 10,4 C 10,5 C 10,3 C 0,9 C 81 % 84 % 22 % 1003,5 hPa #1,4 l/m 2,2 km/h (1 Bft) W-SW - #1:45 h 0,0 UV-I 6,3 C 10,3 C 3,0 km/h (1 Bft)
2013 www.wetterstation-wechselburg.de